sensor_id;sensor_type;location;lat;lon;timestamp;temperature;humidity
74617;DHT22;63123;50.906;4.198;2022-09-06T00:00:04;22.40;61.80
74617;DHT22;63123;50.906;4.198;2022-09-06T00:02:31;22.40;61.90
74617;DHT22;63123;50.906;4.198;2022-09-06T00:04:57;22.40;61.90
74617;DHT22;63123;50.906;4.198;2022-09-06T00:07:23;22.40;61.90
74617;DHT22;63123;50.906;4.198;2022-09-06T00:09:49;22.40;61.90
74617;DHT22;63123;50.906;4.198;2022-09-06T00:12:14;22.40;61.90
74617;DHT22;63123;50.906;4.198;2022-09-06T00:14:40;22.40;61.90
74617;DHT22;63123;50.906;4.198;2022-09-06T00:17:06;22.40;61.90
74617;DHT22;63123;50.906;4.198;2022-09-06T00:19:32;22.40;61.90
74617;DHT22;63123;50.906;4.198;2022-09-06T00:21:57;22.40;62.00
74617;DHT22;63123;50.906;4.198;2022-09-06T00:24:23;22.40;62.00
74617;DHT22;63123;50.906;4.198;2022-09-06T00:26:48;22.40;62.00
74617;DHT22;63123;50.906;4.198;2022-09-06T00:29:14;22.40;62.00
74617;DHT22;63123;50.906;4.198;2022-09-06T00:31:40;22.40;62.00
74617;DHT22;63123;50.906;4.198;2022-09-06T00:34:05;22.40;62.00
74617;DHT22;63123;50.906;4.198;2022-09-06T00:36:31;22.40;62.00
74617;DHT22;63123;50.906;4.198;2022-09-06T00:38:56;22.40;62.00
74617;DHT22;63123;50.906;4.198;2022-09-06T00:41:22;22.40;62.00
74617;DHT22;63123;50.906;4.198;2022-09-06T00:43:48;22.40;62.00
74617;DHT22;63123;50.906;4.198;2022-09-06T00:46:17;22.40;62.00
74617;DHT22;63123;50.906;4.198;2022-09-06T00:48:44;22.40;62.10
74617;DHT22;63123;50.906;4.198;2022-09-06T00:51:12;22.40;62.10
74617;DHT22;63123;50.906;4.198;2022-09-06T00:53:39;22.40;62.10
74617;DHT22;63123;50.906;4.198;2022-09-06T00:56:05;22.40;62.10
74617;DHT22;63123;50.906;4.198;2022-09-06T00:58:30;22.40;62.10
74617;DHT22;63123;50.906;4.198;2022-09-06T01:00:56;22.40;62.10
74617;DHT22;63123;50.906;4.198;2022-09-06T01:03:23;22.40;62.10
74617;DHT22;63123;50.906;4.198;2022-09-06T01:06:05;22.40;62.10
74617;DHT22;63123;50.906;4.198;2022-09-06T01:20:07;22.40;62.20
74617;DHT22;63123;50.906;4.198;2022-09-06T01:28:26;22.40;62.30
74617;DHT22;63123;50.906;4.198;2022-09-06T01:36:25;22.40;62.30
74617;DHT22;63123;50.906;4.198;2022-09-06T01:38:51;22.40;62.30
74617;DHT22;63123;50.906;4.198;2022-09-06T01:41:16;22.40;62.30
74617;DHT22;63123;50.906;4.198;2022-09-06T01:43:46;22.40;62.30
74617;DHT22;63123;50.906;4.198;2022-09-06T01:46:30;22.40;62.30
74617;DHT22;63123;50.906;4.198;2022-09-06T01:49:59;22.40;62.30
74617;DHT22;63123;50.906;4.198;2022-09-06T01:54:57;22.40;62.30
74617;DHT22;63123;50.906;4.198;2022-09-06T02:00:25;22.40;62.30
74617;DHT22;63123;50.906;4.198;2022-09-06T02:02:52;22.40;62.40
74617;DHT22;63123;50.906;4.198;2022-09-06T02:05:44;22.30;62.30
74617;DHT22;63123;50.906;4.198;2022-09-06T02:11:18;22.40;62.30
74617;DHT22;63123;50.906;4.198;2022-09-06T02:13:48;22.40;62.40
74617;DHT22;63123;50.906;4.198;2022-09-06T02:16:19;22.40;62.40
74617;DHT22;63123;50.906;4.198;2022-09-06T02:18:53;22.40;62.40
74617;DHT22;63123;50.906;4.198;2022-09-06T02:21:27;22.40;62.40
74617;DHT22;63123;50.906;4.198;2022-09-06T02:23:58;22.30;62.40
74617;DHT22;63123;50.906;4.198;2022-09-06T02:26:28;22.40;62.40
74617;DHT22;63123;50.906;4.198;2022-09-06T02:28:55;22.40;62.40
74617;DHT22;63123;50.906;4.198;2022-09-06T02:31:25;22.40;62.40
74617;DHT22;63123;50.906;4.198;2022-09-06T02:33:53;22.40;62.40
74617;DHT22;63123;50.906;4.198;2022-09-06T02:36:19;22.40;62.40
74617;DHT22;63123;50.906;4.198;2022-09-06T02:38:46;22.40;62.40
74617;DHT22;63123;50.906;4.198;2022-09-06T02:41:17;22.30;62.40
74617;DHT22;63123;50.906;4.198;2022-09-06T02:43:43;22.40;62.40
74617;DHT22;63123;50.906;4.198;2022-09-06T02:46:09;22.40;62.40
74617;DHT22;63123;50.906;4.198;2022-09-06T02:48:35;22.40;62.50
74617;DHT22;63123;50.906;4.198;2022-09-06T02:51:04;22.40;62.40
74617;DHT22;63123;50.906;4.198;2022-09-06T02:53:30;22.40;62.40
74617;DHT22;63123;50.906;4.198;2022-09-06T02:55:56;22.40;62.50
74617;DHT22;63123;50.906;4.198;2022-09-06T02:58:22;22.40;62.40
74617;DHT22;63123;50.906;4.198;2022-09-06T03:00:49;22.30;62.40
74617;DHT22;63123;50.906;4.198;2022-09-06T03:03:15;22.40;62.50
74617;DHT22;63123;50.906;4.198;2022-09-06T03:05:45;22.40;62.50
74617;DHT22;63123;50.906;4.198;2022-09-06T03:08:10;22.40;62.50
74617;DHT22;63123;50.906;4.198;2022-09-06T03:10:36;22.30;62.50
74617;DHT22;63123;50.906;4.198;2022-09-06T03:13:02;22.40;62.50
74617;DHT22;63123;50.906;4.198;2022-09-06T03:15:28;22.40;62.50
74617;DHT22;63123;50.906;4.198;2022-09-06T03:17:57;22.40;62.50
74617;DHT22;63123;50.906;4.198;2022-09-06T03:20:23;22.40;62.50
74617;DHT22;63123;50.906;4.198;2022-09-06T03:22:48;22.40;62.50
74617;DHT22;63123;50.906;4.198;2022-09-06T03:25:14;22.30;62.50
74617;DHT22;63123;50.906;4.198;2022-09-06T03:27:39;22.30;62.50
74617;DHT22;63123;50.906;4.198;2022-09-06T03:30:06;22.40;62.50
74617;DHT22;63123;50.906;4.198;2022-09-06T03:32:31;22.40;62.50
74617;DHT22;63123;50.906;4.198;2022-09-06T03:34:57;22.40;62.50
74617;DHT22;63123;50.906;4.198;2022-09-06T03:37:23;22.40;62.60
74617;DHT22;63123;50.906;4.198;2022-09-06T03:39:49;22.30;62.50
74617;DHT22;63123;50.906;4.198;2022-09-06T03:42:15;22.40;62.60
74617;DHT22;63123;50.906;4.198;2022-09-06T03:44:40;22.40;62.50
74617;DHT22;63123;50.906;4.198;2022-09-06T03:47:06;22.40;62.60
74617;DHT22;63123;50.906;4.198;2022-09-06T03:49:31;22.30;62.60
74617;DHT22;63123;50.906;4.198;2022-09-06T03:51:57;22.30;62.50
74617;DHT22;63123;50.906;4.198;2022-09-06T03:54:22;22.40;62.60
74617;DHT22;63123;50.906;4.198;2022-09-06T03:56:49;22.40;62.60
74617;DHT22;63123;50.906;4.198;2022-09-06T03:59:14;22.40;62.60
74617;DHT22;63123;50.906;4.198;2022-09-06T04:01:40;22.40;62.60
74617;DHT22;63123;50.906;4.198;2022-09-06T04:04:05;22.30;62.50
74617;DHT22;63123;50.906;4.198;2022-09-06T04:06:31;22.40;62.60
74617;DHT22;63123;50.906;4.198;2022-09-06T04:08:56;22.30;62.60
74617;DHT22;63123;50.906;4.198;2022-09-06T04:11:22;22.40;62.60
74617;DHT22;63123;50.906;4.198;2022-09-06T04:13:48;22.40;62.70
74617;DHT22;63123;50.906;4.198;2022-09-06T04:16:13;22.30;62.60
74617;DHT22;63123;50.906;4.198;2022-09-06T04:18:39;22.40;62.70
74617;DHT22;63123;50.906;4.198;2022-09-06T04:21:04;22.30;62.60
74617;DHT22;63123;50.906;4.198;2022-09-06T04:23:30;22.30;62.60
74617;DHT22;63123;50.906;4.198;2022-09-06T04:25:57;22.30;62.60
74617;DHT22;63123;50.906;4.198;2022-09-06T04:28:23;22.40;62.70
74617;DHT22;63123;50.906;4.198;2022-09-06T04:30:55;22.40;62.70
74617;DHT22;63123;50.906;4.198;2022-09-06T04:33:22;22.30;62.60
74617;DHT22;63123;50.906;4.198;2022-09-06T04:35:55;22.40;62.70
74617;DHT22;63123;50.906;4.198;2022-09-06T04:38:21;22.30;62.60
74617;DHT22;63123;50.906;4.198;2022-09-06T04:40:47;22.30;62.70
74617;DHT22;63123;50.906;4.198;2022-09-06T04:43:13;22.30;62.70
74617;DHT22;63123;50.906;4.198;2022-09-06T04:45:39;22.40;62.70
74617;DHT22;63123;50.906;4.198;2022-09-06T04:48:05;22.40;62.80
74617;DHT22;63123;50.906;4.198;2022-09-06T04:50:30;22.40;62.70
74617;DHT22;63123;50.906;4.198;2022-09-06T04:52:56;22.30;62.70
74617;DHT22;63123;50.906;4.198;2022-09-06T04:55:21;22.40;62.70
74617;DHT22;63123;50.906;4.198;2022-09-06T04:57:47;22.30;62.70
74617;DHT22;63123;50.906;4.198;2022-09-06T05:00:13;22.30;62.70
74617;DHT22;63123;50.906;4.198;2022-09-06T05:02:38;22.30;62.70
74617;DHT22;63123;50.906;4.198;2022-09-06T05:05:04;22.40;62.70
74617;DHT22;63123;50.906;4.198;2022-09-06T05:07:30;22.30;62.70
74617;DHT22;63123;50.906;4.198;2022-09-06T05:09:55;22.40;62.70
74617;DHT22;63123;50.906;4.198;2022-09-06T05:12:21;22.40;62.70
74617;DHT22;63123;50.906;4.198;2022-09-06T05:14:47;22.30;62.70
74617;DHT22;63123;50.906;4.198;2022-09-06T05:17:12;22.40;62.80
74617;DHT22;63123;50.906;4.198;2022-09-06T05:19:39;22.40;62.70
74617;DHT22;63123;50.906;4.198;2022-09-06T05:22:05;22.30;62.70
74617;DHT22;63123;50.906;4.198;2022-09-06T05:24:30;22.40;62.70
74617;DHT22;63123;50.906;4.198;2022-09-06T05:26:56;22.30;62.70
74617;DHT22;63123;50.906;4.198;2022-09-06T05:29:23;22.40;62.70
74617;DHT22;63123;50.906;4.198;2022-09-06T05:31:49;22.40;62.70
74617;DHT22;63123;50.906;4.198;2022-09-06T05:34:14;22.40;62.70
74617;DHT22;63123;50.906;4.198;2022-09-06T05:36:40;22.40;62.70
74617;DHT22;63123;50.906;4.198;2022-09-06T05:39:06;22.40;62.70
74617;DHT22;63123;50.906;4.198;2022-09-06T05:41:32;22.40;62.70
74617;DHT22;63123;50.906;4.198;2022-09-06T05:43:58;22.40;62.70
74617;DHT22;63123;50.906;4.198;2022-09-06T05:46:23;22.40;62.70
74617;DHT22;63123;50.906;4.198;2022-09-06T05:48:55;22.40;62.70
74617;DHT22;63123;50.906;4.198;2022-09-06T05:51:22;22.40;62.70
74617;DHT22;63123;50.906;4.198;2022-09-06T05:53:48;22.40;62.70
74617;DHT22;63123;50.906;4.198;2022-09-06T05:56:15;22.40;62.70
74617;DHT22;63123;50.906;4.198;2022-09-06T05:58:41;22.30;62.70
74617;DHT22;63123;50.906;4.198;2022-09-06T06:01:14;22.30;62.70
74617;DHT22;63123;50.906;4.198;2022-09-06T06:03:40;22.30;62.70
74617;DHT22;63123;50.906;4.198;2022-09-06T06:06:06;22.30;62.70
74617;DHT22;63123;50.906;4.198;2022-09-06T06:08:31;22.30;62.70
74617;DHT22;63123;50.906;4.198;2022-09-06T06:10:58;22.40;62.70
74617;DHT22;63123;50.906;4.198;2022-09-06T06:13:26;22.40;62.70
74617;DHT22;63123;50.906;4.198;2022-09-06T06:15:52;22.40;62.70
74617;DHT22;63123;50.906;4.198;2022-09-06T06:18:17;22.40;62.70
74617;DHT22;63123;50.906;4.198;2022-09-06T06:20:43;22.30;62.70
74617;DHT22;63123;50.906;4.198;2022-09-06T06:23:08;22.40;62.70
74617;DHT22;63123;50.906;4.198;2022-09-06T06:25:34;22.40;62.70
74617;DHT22;63123;50.906;4.198;2022-09-06T06:27:59;22.30;62.70
74617;DHT22;63123;50.906;4.198;2022-09-06T06:30:25;22.30;62.70
74617;DHT22;63123;50.906;4.198;2022-09-06T06:32:50;22.40;62.70
74617;DHT22;63123;50.906;4.198;2022-09-06T06:35:16;22.30;62.70
74617;DHT22;63123;50.906;4.198;2022-09-06T06:37:42;22.30;62.70
74617;DHT22;63123;50.906;4.198;2022-09-06T06:40:09;22.40;62.80
74617;DHT22;63123;50.906;4.198;2022-09-06T06:42:34;22.40;62.90
74617;DHT22;63123;50.906;4.198;2022-09-06T06:45:00;22.40;63.20
74617;DHT22;63123;50.906;4.198;2022-09-06T06:47:26;22.40;63.20
74617;DHT22;63123;50.906;4.198;2022-09-06T06:49:51;22.40;63.50
74617;DHT22;63123;50.906;4.198;2022-09-06T06:52:17;22.40;63.40
74617;DHT22;63123;50.906;4.198;2022-09-06T06:54:45;22.40;63.50
74617;DHT22;63123;50.906;4.198;2022-09-06T06:57:11;22.40;63.40
74617;DHT22;63123;50.906;4.198;2022-09-06T06:59:37;22.40;63.40
74617;DHT22;63123;50.906;4.198;2022-09-06T07:02:04;22.40;63.40
74617;DHT22;63123;50.906;4.198;2022-09-06T07:04:30;22.40;63.30
74617;DHT22;63123;50.906;4.198;2022-09-06T07:06:56;22.40;63.40
74617;DHT22;63123;50.906;4.198;2022-09-06T07:09:22;22.40;63.50
74617;DHT22;63123;50.906;4.198;2022-09-06T07:11:48;22.40;63.40
74617;DHT22;63123;50.906;4.198;2022-09-06T07:14:18;22.40;63.30
74617;DHT22;63123;50.906;4.198;2022-09-06T07:16:44;22.40;63.40
74617;DHT22;63123;50.906;4.198;2022-09-06T07:19:10;22.50;63.30
74617;DHT22;63123;50.906;4.198;2022-09-06T07:21:35;22.50;63.40
74617;DHT22;63123;50.906;4.198;2022-09-06T07:24:01;22.40;64.10
74617;DHT22;63123;50.906;4.198;2022-09-06T07:26:28;22.40;63.50
74617;DHT22;63123;50.906;4.198;2022-09-06T07:28:56;22.50;63.60
74617;DHT22;63123;50.906;4.198;2022-09-06T07:31:22;22.50;63.30
74617;DHT22;63123;50.906;4.198;2022-09-06T07:33:48;22.50;63.50
74617;DHT22;63123;50.906;4.198;2022-09-06T07:36:14;22.40;63.60
74617;DHT22;63123;50.906;4.198;2022-09-06T07:38:40;22.50;63.30
74617;DHT22;63123;50.906;4.198;2022-09-06T07:41:07;22.50;63.60
74617;DHT22;63123;50.906;4.198;2022-09-06T07:43:34;22.50;63.40
74617;DHT22;63123;50.906;4.198;2022-09-06T07:46:01;22.40;63.30
74617;DHT22;63123;50.906;4.198;2022-09-06T07:48:29;22.50;63.40
74617;DHT22;63123;50.906;4.198;2022-09-06T07:51:02;22.50;63.60
74617;DHT22;63123;50.906;4.198;2022-09-06T07:53:27;22.50;63.40
74617;DHT22;63123;50.906;4.198;2022-09-06T07:55:53;22.40;63.30
74617;DHT22;63123;50.906;4.198;2022-09-06T07:58:19;22.50;63.50
74617;DHT22;63123;50.906;4.198;2022-09-06T08:00:44;22.50;63.40
74617;DHT22;63123;50.906;4.198;2022-09-06T08:03:10;22.50;63.30
74617;DHT22;63123;50.906;4.198;2022-09-06T08:05:36;22.50;63.40
74617;DHT22;63123;50.906;4.198;2022-09-06T08:08:01;22.50;63.20
74617;DHT22;63123;50.906;4.198;2022-09-06T08:10:27;22.50;63.30
74617;DHT22;63123;50.906;4.198;2022-09-06T08:12:53;22.50;63.20
74617;DHT22;63123;50.906;4.198;2022-09-06T08:15:22;22.50;63.20
74617;DHT22;63123;50.906;4.198;2022-09-06T08:17:48;22.50;63.20
74617;DHT22;63123;50.906;4.198;2022-09-06T08:20:15;22.50;63.30
74617;DHT22;63123;50.906;4.198;2022-09-06T08:22:41;22.50;63.20
74617;DHT22;63123;50.906;4.198;2022-09-06T08:25:07;22.50;63.00
74617;DHT22;63123;50.906;4.198;2022-09-06T08:27:33;22.50;63.20
74617;DHT22;63123;50.906;4.198;2022-09-06T08:29:58;22.50;63.30
74617;DHT22;63123;50.906;4.198;2022-09-06T08:32:24;22.60;63.30
74617;DHT22;63123;50.906;4.198;2022-09-06T08:34:50;22.60;63.40
74617;DHT22;63123;50.906;4.198;2022-09-06T08:37:15;22.60;63.50
74617;DHT22;63123;50.906;4.198;2022-09-06T08:39:41;22.60;63.30
74617;DHT22;63123;50.906;4.198;2022-09-06T08:42:07;22.50;63.30
74617;DHT22;63123;50.906;4.198;2022-09-06T08:44:39;22.60;63.50
74617;DHT22;63123;50.906;4.198;2022-09-06T08:47:10;22.60;63.30
74617;DHT22;63123;50.906;4.198;2022-09-06T08:49:44;22.60;63.50
74617;DHT22;63123;50.906;4.198;2022-09-06T08:52:38;22.60;63.50
74617;DHT22;63123;50.906;4.198;2022-09-06T08:57:55;22.60;63.30
74617;DHT22;63123;50.906;4.198;2022-09-06T09:00:23;22.60;63.30
74617;DHT22;63123;50.906;4.198;2022-09-06T09:02:52;22.60;63.20
74617;DHT22;63123;50.906;4.198;2022-09-06T09:05:39;22.60;63.20
74617;DHT22;63123;50.906;4.198;2022-09-06T09:08:28;22.60;63.10
74617;DHT22;63123;50.906;4.198;2022-09-06T09:11:02;22.60;63.20
74617;DHT22;63123;50.906;4.198;2022-09-06T09:15:54;22.60;63.40
74617;DHT22;63123;50.906;4.198;2022-09-06T09:18:24;22.60;63.20
74617;DHT22;63123;50.906;4.198;2022-09-06T09:20:51;22.60;63.30
74617;DHT22;63123;50.906;4.198;2022-09-06T09:23:17;22.60;63.20
74617;DHT22;63123;50.906;4.198;2022-09-06T09:25:43;22.60;63.20
74617;DHT22;63123;50.906;4.198;2022-09-06T09:28:17;22.60;63.20
74617;DHT22;63123;50.906;4.198;2022-09-06T09:30:55;22.60;63.20
74617;DHT22;63123;50.906;4.198;2022-09-06T09:33:34;22.60;63.20
74617;DHT22;63123;50.906;4.198;2022-09-06T09:36:08;22.60;62.90
74617;DHT22;63123;50.906;4.198;2022-09-06T09:38:45;22.60;63.30
74617;DHT22;63123;50.906;4.198;2022-09-06T09:41:26;22.60;63.00
74617;DHT22;63123;50.906;4.198;2022-09-06T09:43:56;22.60;63.00
74617;DHT22;63123;50.906;4.198;2022-09-06T09:49:12;22.60;63.00
74617;DHT22;63123;50.906;4.198;2022-09-06T09:51:45;22.60;63.00
74617;DHT22;63123;50.906;4.198;2022-09-06T09:54:14;22.60;63.10
74617;DHT22;63123;50.906;4.198;2022-09-06T09:56:55;22.60;63.00
74617;DHT22;63123;50.906;4.198;2022-09-06T09:59:51;22.60;63.00
74617;DHT22;63123;50.906;4.198;2022-09-06T10:04:52;22.70;63.10
74617;DHT22;63123;50.906;4.198;2022-09-06T10:07:18;22.70;63.00
74617;DHT22;63123;50.906;4.198;2022-09-06T10:09:55;22.60;63.10
74617;DHT22;63123;50.906;4.198;2022-09-06T10:12:33;22.60;63.00
74617;DHT22;63123;50.906;4.198;2022-09-06T10:14:59;22.70;62.90
74617;DHT22;63123;50.906;4.198;2022-09-06T10:19:51;22.70;62.90
74617;DHT22;63123;50.906;4.198;2022-09-06T10:22:46;22.70;63.10
74617;DHT22;63123;50.906;4.198;2022-09-06T10:25:44;22.70;63.00
74617;DHT22;63123;50.906;4.198;2022-09-06T10:36:28;22.70;63.10
74617;DHT22;63123;50.906;4.198;2022-09-06T10:42:03;22.70;63.00
74617;DHT22;63123;50.906;4.198;2022-09-06T10:47:23;22.70;63.10
74617;DHT22;63123;50.906;4.198;2022-09-06T10:49:55;22.70;63.10
74617;DHT22;63123;50.906;4.198;2022-09-06T10:52:30;22.70;63.10
74617;DHT22;63123;50.906;4.198;2022-09-06T10:54:59;22.70;63.00
74617;DHT22;63123;50.906;4.198;2022-09-06T10:57:52;22.70;63.10
74617;DHT22;63123;50.906;4.198;2022-09-06T11:00:20;22.70;63.10
74617;DHT22;63123;50.906;4.198;2022-09-06T11:05:32;22.70;63.00
74617;DHT22;63123;50.906;4.198;2022-09-06T11:08:01;22.70;63.20
74617;DHT22;63123;50.906;4.198;2022-09-06T11:10:33;22.70;63.10
74617;DHT22;63123;50.906;4.198;2022-09-06T11:13:08;22.70;63.00
74617;DHT22;63123;50.906;4.198;2022-09-06T11:16:07;22.70;63.00
74617;DHT22;63123;50.906;4.198;2022-09-06T11:18:38;22.70;63.10
74617;DHT22;63123;50.906;4.198;2022-09-06T11:21:29;22.70;63.10
74617;DHT22;63123;50.906;4.198;2022-09-06T11:24:43;22.70;63.10
74617;DHT22;63123;50.906;4.198;2022-09-06T11:29:28;22.70;63.20
74617;DHT22;63123;50.906;4.198;2022-09-06T11:31:58;22.70;63.10
74617;DHT22;63123;50.906;4.198;2022-09-06T11:34:29;22.70;63.10
74617;DHT22;63123;50.906;4.198;2022-09-06T11:37:00;22.70;63.20
74617;DHT22;63123;50.906;4.198;2022-09-06T11:39:30;22.70;63.20
74617;DHT22;63123;50.906;4.198;2022-09-06T11:41:57;22.70;63.10
74617;DHT22;63123;50.906;4.198;2022-09-06T11:47:51;22.70;63.10
74617;DHT22;63123;50.906;4.198;2022-09-06T11:55:36;22.70;63.00
74617;DHT22;63123;50.906;4.198;2022-09-06T11:58:22;22.70;63.10
74617;DHT22;63123;50.906;4.198;2022-09-06T12:08:52;22.70;63.00
74617;DHT22;63123;50.906;4.198;2022-09-06T12:13:56;22.70;63.00
74617;DHT22;63123;50.906;4.198;2022-09-06T12:16:23;22.80;63.10
74617;DHT22;63123;50.906;4.198;2022-09-06T12:21:43;22.80;63.00
74617;DHT22;63123;50.906;4.198;2022-09-06T12:27:23;22.80;62.90
74617;DHT22;63123;50.906;4.198;2022-09-06T12:29:52;22.80;62.90
74617;DHT22;63123;50.906;4.198;2022-09-06T12:32:23;22.80;62.90
74617;DHT22;63123;50.906;4.198;2022-09-06T12:34:50;22.70;62.90
74617;DHT22;63123;50.906;4.198;2022-09-06T12:37:35;22.80;62.90
74617;DHT22;63123;50.906;4.198;2022-09-06T12:40:04;22.80;62.90
74617;DHT22;63123;50.906;4.198;2022-09-06T12:42:30;22.80;62.90
74617;DHT22;63123;50.906;4.198;2022-09-06T12:44:56;22.80;62.90
74617;DHT22;63123;50.906;4.198;2022-09-06T12:47:29;22.80;62.90
74617;DHT22;63123;50.906;4.198;2022-09-06T12:50:18;22.80;62.90
74617;DHT22;63123;50.906;4.198;2022-09-06T12:52:54;22.80;62.90
74617;DHT22;63123;50.906;4.198;2022-09-06T12:55:41;22.80;62.90
74617;DHT22;63123;50.906;4.198;2022-09-06T12:58:09;22.80;62.90
74617;DHT22;63123;50.906;4.198;2022-09-06T13:00:35;22.80;62.90
74617;DHT22;63123;50.906;4.198;2022-09-06T13:03:12;22.80;62.90
74617;DHT22;63123;50.906;4.198;2022-09-06T13:05:45;22.80;62.90
74617;DHT22;63123;50.906;4.198;2022-09-06T13:08:41;22.80;63.00
74617;DHT22;63123;50.906;4.198;2022-09-06T13:11:09;22.80;62.90
74617;DHT22;63123;50.906;4.198;2022-09-06T13:13:36;22.80;62.90
74617;DHT22;63123;50.906;4.198;2022-09-06T13:16:10;22.80;62.90
74617;DHT22;63123;50.906;4.198;2022-09-06T13:18:36;22.80;62.80
74617;DHT22;63123;50.906;4.198;2022-09-06T13:21:06;22.80;62.90
74617;DHT22;63123;50.906;4.198;2022-09-06T13:23:46;22.80;62.90
74617;DHT22;63123;50.906;4.198;2022-09-06T13:26:13;22.80;63.00
74617;DHT22;63123;50.906;4.198;2022-09-06T13:28:39;22.80;62.90
74617;DHT22;63123;50.906;4.198;2022-09-06T13:33:42;22.80;62.90
74617;DHT22;63123;50.906;4.198;2022-09-06T13:43:58;22.70;62.90
74617;DHT22;63123;50.906;4.198;2022-09-06T13:46:24;22.80;63.00
74617;DHT22;63123;50.906;4.198;2022-09-06T13:48:54;22.70;62.90
74617;DHT22;63123;50.906;4.198;2022-09-06T13:51:20;22.70;63.00
74617;DHT22;63123;50.906;4.198;2022-09-06T13:53:46;22.70;63.00
74617;DHT22;63123;50.906;4.198;2022-09-06T13:56:12;22.70;62.90
74617;DHT22;63123;50.906;4.198;2022-09-06T13:58:37;22.70;63.00
74617;DHT22;63123;50.906;4.198;2022-09-06T14:01:06;22.70;63.00
74617;DHT22;63123;50.906;4.198;2022-09-06T14:03:35;22.70;63.10
74617;DHT22;63123;50.906;4.198;2022-09-06T14:06:01;22.70;63.00
74617;DHT22;63123;50.906;4.198;2022-09-06T14:08:27;22.70;63.20
74617;DHT22;63123;50.906;4.198;2022-09-06T14:10:53;22.70;63.20
74617;DHT22;63123;50.906;4.198;2022-09-06T14:13:19;22.70;63.10
74617;DHT22;63123;50.906;4.198;2022-09-06T14:15:47;22.70;63.00
74617;DHT22;63123;50.906;4.198;2022-09-06T14:18:13;22.70;63.10
74617;DHT22;63123;50.906;4.198;2022-09-06T14:20:39;22.70;63.10
74617;DHT22;63123;50.906;4.198;2022-09-06T14:23:05;22.70;63.10
74617;DHT22;63123;50.906;4.198;2022-09-06T14:25:34;22.70;63.00
74617;DHT22;63123;50.906;4.198;2022-09-06T14:28:03;22.70;63.10
74617;DHT22;63123;50.906;4.198;2022-09-06T14:30:29;22.70;63.00
74617;DHT22;63123;50.906;4.198;2022-09-06T14:32:55;22.70;63.20
74617;DHT22;63123;50.906;4.198;2022-09-06T14:35:21;22.70;63.00
74617;DHT22;63123;50.906;4.198;2022-09-06T14:37:46;22.70;63.00
74617;DHT22;63123;50.906;4.198;2022-09-06T14:40:12;22.70;63.10
74617;DHT22;63123;50.906;4.198;2022-09-06T14:42:38;22.70;63.10
74617;DHT22;63123;50.906;4.198;2022-09-06T14:45:04;22.70;63.10
74617;DHT22;63123;50.906;4.198;2022-09-06T14:47:30;22.70;63.10
74617;DHT22;63123;50.906;4.198;2022-09-06T14:49:56;22.70;63.20
74617;DHT22;63123;50.906;4.198;2022-09-06T14:52:22;22.70;63.10
74617;DHT22;63123;50.906;4.198;2022-09-06T14:54:47;22.70;63.10
74617;DHT22;63123;50.906;4.198;2022-09-06T14:57:13;22.70;62.90
74617;DHT22;63123;50.906;4.198;2022-09-06T14:59:39;22.70;63.10
74617;DHT22;63123;50.906;4.198;2022-09-06T15:02:06;22.70;63.20
74617;DHT22;63123;50.906;4.198;2022-09-06T15:04:31;22.70;63.00
74617;DHT22;63123;50.906;4.198;2022-09-06T15:06:57;22.70;63.20
74617;DHT22;63123;50.906;4.198;2022-09-06T15:09:24;22.70;63.10
74617;DHT22;63123;50.906;4.198;2022-09-06T15:11:50;22.70;63.20
74617;DHT22;63123;50.906;4.198;2022-09-06T15:14:21;22.70;63.20
74617;DHT22;63123;50.906;4.198;2022-09-06T15:16:48;22.70;63.20
74617;DHT22;63123;50.906;4.198;2022-09-06T15:19:20;22.70;63.20
74617;DHT22;63123;50.906;4.198;2022-09-06T15:21:45;22.70;63.20
74617;DHT22;63123;50.906;4.198;2022-09-06T15:24:12;22.70;63.20
74617;DHT22;63123;50.906;4.198;2022-09-06T15:26:42;22.60;63.20
74617;DHT22;63123;50.906;4.198;2022-09-06T15:29:12;22.60;63.20
74617;DHT22;63123;50.906;4.198;2022-09-06T15:31:38;22.70;63.30
74617;DHT22;63123;50.906;4.198;2022-09-06T15:34:05;22.60;63.20
74617;DHT22;63123;50.906;4.198;2022-09-06T15:36:31;22.70;63.30
74617;DHT22;63123;50.906;4.198;2022-09-06T15:39:01;22.70;63.30
74617;DHT22;63123;50.906;4.198;2022-09-06T15:41:30;22.60;63.20
74617;DHT22;63123;50.906;4.198;2022-09-06T15:43:59;22.70;63.30
74617;DHT22;63123;50.906;4.198;2022-09-06T15:48:59;22.70;63.30
74617;DHT22;63123;50.906;4.198;2022-09-06T15:51:27;22.60;63.30
74617;DHT22;63123;50.906;4.198;2022-09-06T15:53:53;22.60;63.30
74617;DHT22;63123;50.906;4.198;2022-09-06T15:56:19;22.60;63.30
74617;DHT22;63123;50.906;4.198;2022-09-06T15:58:45;22.60;63.40
74617;DHT22;63123;50.906;4.198;2022-09-06T16:01:17;22.60;63.40
74617;DHT22;63123;50.906;4.198;2022-09-06T16:03:55;22.70;63.40
74617;DHT22;63123;50.906;4.198;2022-09-06T16:06:28;22.70;63.50
74617;DHT22;63123;50.906;4.198;2022-09-06T16:08:56;22.70;64.00
74617;DHT22;63123;50.906;4.198;2022-09-06T16:11:26;22.70;63.60
74617;DHT22;63123;50.906;4.198;2022-09-06T16:13:53;22.70;63.50
74617;DHT22;63123;50.906;4.198;2022-09-06T16:16:19;22.60;63.50
74617;DHT22;63123;50.906;4.198;2022-09-06T16:18:47;22.60;63.60
74617;DHT22;63123;50.906;4.198;2022-09-06T16:21:18;22.60;63.60
74617;DHT22;63123;50.906;4.198;2022-09-06T16:23:50;22.70;63.60
74617;DHT22;63123;50.906;4.198;2022-09-06T16:26:16;22.60;63.60
74617;DHT22;63123;50.906;4.198;2022-09-06T16:28:42;22.60;63.60
74617;DHT22;63123;50.906;4.198;2022-09-06T16:31:08;22.60;63.60
74617;DHT22;63123;50.906;4.198;2022-09-06T16:33:36;22.60;63.60
74617;DHT22;63123;50.906;4.198;2022-09-06T16:36:04;22.60;63.70
74617;DHT22;63123;50.906;4.198;2022-09-06T16:38:31;22.60;63.60
74617;DHT22;63123;50.906;4.198;2022-09-06T16:41:27;22.70;64.30
74617;DHT22;63123;50.906;4.198;2022-09-06T16:43:54;22.60;63.70
74617;DHT22;63123;50.906;4.198;2022-09-06T16:46:23;22.60;63.70
74617;DHT22;63123;50.906;4.198;2022-09-06T16:48:50;22.60;63.70
74617;DHT22;63123;50.906;4.198;2022-09-06T16:51:18;22.60;63.70
74617;DHT22;63123;50.906;4.198;2022-09-06T16:53:45;22.60;63.70
74617;DHT22;63123;50.906;4.198;2022-09-06T16:56:15;22.60;63.80
74617;DHT22;63123;50.906;4.198;2022-09-06T16:58:48;22.60;63.80
74617;DHT22;63123;50.906;4.198;2022-09-06T17:01:14;22.60;63.80
74617;DHT22;63123;50.906;4.198;2022-09-06T17:03:40;22.60;63.90
74617;DHT22;63123;50.906;4.198;2022-09-06T17:06:06;22.60;63.80
74617;DHT22;63123;50.906;4.198;2022-09-06T17:08:33;22.60;63.90
74617;DHT22;63123;50.906;4.198;2022-09-06T17:11:08;22.60;63.90
74617;DHT22;63123;50.906;4.198;2022-09-06T17:13:34;22.60;63.80
74617;DHT22;63123;50.906;4.198;2022-09-06T17:16:00;22.60;63.80
74617;DHT22;63123;50.906;4.198;2022-09-06T17:18:44;22.60;63.80
74617;DHT22;63123;50.906;4.198;2022-09-06T17:21:10;22.60;63.90